sensor_id;sensor_type;location;lat;lon;timestamp;P1;durP1;ratioP1;P2;durP2;ratioP2
47860;SDS011;33620;52.340;5.984;2022-12-11T00:01:52;113.10;;;35.65;;
47860;SDS011;33620;52.340;5.984;2022-12-11T00:04:17;107.15;;;34.45;;
47860;SDS011;33620;52.340;5.984;2022-12-11T00:06:43;113.32;;;33.47;;
47860;SDS011;33620;52.340;5.984;2022-12-11T00:09:08;93.53;;;31.15;;
47860;SDS011;33620;52.340;5.984;2022-12-11T00:11:34;106.70;;;34.25;;
47860;SDS011;33620;52.340;5.984;2022-12-11T00:14:00;93.28;;;31.80;;
47860;SDS011;33620;52.340;5.984;2022-12-11T00:16:25;95.15;;;30.38;;
47860;SDS011;33620;52.340;5.984;2022-12-11T00:18:51;81.00;;;29.13;;
47860;SDS011;33620;52.340;5.984;2022-12-11T00:21:16;97.05;;;33.35;;
47860;SDS011;33620;52.340;5.984;2022-12-11T00:23:41;95.95;;;31.17;;
47860;SDS011;33620;52.340;5.984;2022-12-11T00:26:07;93.88;;;31.63;;
47860;SDS011;33620;52.340;5.984;2022-12-11T00:28:35;100.82;;;32.28;;
47860;SDS011;33620;52.340;5.984;2022-12-11T00:31:04;95.00;;;30.85;;
47860;SDS011;33620;52.340;5.984;2022-12-11T00:33:31;80.07;;;29.20;;
47860;SDS011;33620;52.340;5.984;2022-12-11T00:35:57;92.60;;;30.90;;
47860;SDS011;33620;52.340;5.984;2022-12-11T00:38:22;104.07;;;32.35;;
47860;SDS011;33620;52.340;5.984;2022-12-11T00:40:48;94.10;;;31.65;;
47860;SDS011;33620;52.340;5.984;2022-12-11T00:43:14;99.63;;;31.33;;
47860;SDS011;33620;52.340;5.984;2022-12-11T00:45:43;109.82;;;30.75;;
47860;SDS011;33620;52.340;5.984;2022-12-11T00:48:10;86.20;;;30.27;;
47860;SDS011;33620;52.340;5.984;2022-12-11T00:50:37;85.43;;;29.08;;
47860;SDS011;33620;52.340;5.984;2022-12-11T00:53:03;103.20;;;32.70;;
47860;SDS011;33620;52.340;5.984;2022-12-11T00:55:29;86.18;;;30.50;;
47860;SDS011;33620;52.340;5.984;2022-12-11T00:57:55;100.85;;;32.47;;
47860;SDS011;33620;52.340;5.984;2022-12-11T01:00:22;99.53;;;31.30;;
47860;SDS011;33620;52.340;5.984;2022-12-11T01:02:48;97.50;;;31.92;;
47860;SDS011;33620;52.340;5.984;2022-12-11T01:05:14;89.15;;;32.55;;
47860;SDS011;33620;52.340;5.984;2022-12-11T01:07:39;80.78;;;29.88;;
47860;SDS011;33620;52.340;5.984;2022-12-11T01:10:05;101.55;;;31.95;;
47860;SDS011;33620;52.340;5.984;2022-12-11T01:12:55;85.30;;;31.35;;
47860;SDS011;33620;52.340;5.984;2022-12-11T01:15:24;90.75;;;30.35;;
47860;SDS011;33620;52.340;5.984;2022-12-11T01:17:51;80.13;;;30.00;;
47860;SDS011;33620;52.340;5.984;2022-12-11T01:20:18;102.55;;;32.78;;
47860;SDS011;33620;52.340;5.984;2022-12-11T01:22:44;99.78;;;29.98;;
47860;SDS011;33620;52.340;5.984;2022-12-11T01:25:10;105.15;;;31.40;;
47860;SDS011;33620;52.340;5.984;2022-12-11T01:27:36;96.88;;;32.30;;
47860;SDS011;33620;52.340;5.984;2022-12-11T01:30:06;91.20;;;31.27;;
47860;SDS011;33620;52.340;5.984;2022-12-11T01:32:32;98.65;;;34.28;;
47860;SDS011;33620;52.340;5.984;2022-12-11T01:34:59;84.30;;;29.98;;
47860;SDS011;33620;52.340;5.984;2022-12-11T01:37:28;77.47;;;29.70;;
47860;SDS011;33620;52.340;5.984;2022-12-11T01:39:54;98.22;;;34.53;;
47860;SDS011;33620;52.340;5.984;2022-12-11T01:42:20;92.72;;;30.27;;
47860;SDS011;33620;52.340;5.984;2022-12-11T01:47:10;86.97;;;31.60;;
47860;SDS011;33620;52.340;5.984;2022-12-11T01:49:36;96.70;;;32.30;;
47860;SDS011;33620;52.340;5.984;2022-12-11T01:52:11;81.65;;;30.27;;
47860;SDS011;33620;52.340;5.984;2022-12-11T01:54:43;83.72;;;30.30;;
47860;SDS011;33620;52.340;5.984;2022-12-11T01:57:09;94.38;;;30.50;;
47860;SDS011;33620;52.340;5.984;2022-12-11T01:59:38;90.90;;;31.17;;
47860;SDS011;33620;52.340;5.984;2022-12-11T02:02:06;92.63;;;32.05;;
47860;SDS011;33620;52.340;5.984;2022-12-11T02:04:35;100.20;;;32.38;;
47860;SDS011;33620;52.340;5.984;2022-12-11T02:07:03;95.97;;;32.25;;
47860;SDS011;33620;52.340;5.984;2022-12-11T02:09:29;87.45;;;30.77;;
47860;SDS011;33620;52.340;5.984;2022-12-11T02:20:09;97.65;;;32.08;;
47860;SDS011;33620;52.340;5.984;2022-12-11T02:28:43;97.60;;;32.22;;
47860;SDS011;33620;52.340;5.984;2022-12-11T02:31:16;99.97;;;31.85;;
47860;SDS011;33620;52.340;5.984;2022-12-11T02:36:22;96.55;;;32.80;;
47860;SDS011;33620;52.340;5.984;2022-12-11T02:38:50;91.13;;;29.58;;
47860;SDS011;33620;52.340;5.984;2022-12-11T02:41:19;102.78;;;31.13;;
47860;SDS011;33620;52.340;5.984;2022-12-11T02:43:47;108.30;;;32.75;;
47860;SDS011;33620;52.340;5.984;2022-12-11T02:46:14;96.40;;;30.40;;
47860;SDS011;33620;52.340;5.984;2022-12-11T02:48:41;82.65;;;30.30;;
47860;SDS011;33620;52.340;5.984;2022-12-11T02:51:08;104.05;;;33.65;;
47860;SDS011;33620;52.340;5.984;2022-12-11T02:53:36;90.95;;;30.95;;
47860;SDS011;33620;52.340;5.984;2022-12-11T02:56:07;89.47;;;30.33;;
47860;SDS011;33620;52.340;5.984;2022-12-11T02:58:36;104.32;;;32.78;;
47860;SDS011;33620;52.340;5.984;2022-12-11T03:01:09;101.30;;;31.55;;
47860;SDS011;33620;52.340;5.984;2022-12-11T03:03:35;93.22;;;31.85;;
47860;SDS011;33620;52.340;5.984;2022-12-11T03:06:01;98.82;;;31.65;;
47860;SDS011;33620;52.340;5.984;2022-12-11T03:08:27;106.30;;;30.90;;
47860;SDS011;33620;52.340;5.984;2022-12-11T03:10:53;93.88;;;32.83;;
47860;SDS011;33620;52.340;5.984;2022-12-11T03:13:19;97.90;;;32.03;;
47860;SDS011;33620;52.340;5.984;2022-12-11T03:18:17;89.95;;;30.88;;
47860;SDS011;33620;52.340;5.984;2022-12-11T03:20:45;96.53;;;32.42;;
47860;SDS011;33620;52.340;5.984;2022-12-11T03:23:31;70.32;;;28.35;;
47860;SDS011;33620;52.340;5.984;2022-12-11T03:26:05;83.53;;;27.92;;
47860;SDS011;33620;52.340;5.984;2022-12-11T03:31:01;101.78;;;30.50;;
47860;SDS011;33620;52.340;5.984;2022-12-11T03:33:34;81.75;;;28.75;;
47860;SDS011;33620;52.340;5.984;2022-12-11T03:36:05;90.20;;;30.02;;
47860;SDS011;33620;52.340;5.984;2022-12-11T03:38:40;76.68;;;27.42;;
47860;SDS011;33620;52.340;5.984;2022-12-11T03:41:10;102.75;;;30.13;;
47860;SDS011;33620;52.340;5.984;2022-12-11T03:43:37;90.07;;;31.27;;
47860;SDS011;33620;52.340;5.984;2022-12-11T03:46:04;92.50;;;29.35;;
47860;SDS011;33620;52.340;5.984;2022-12-11T03:48:32;106.53;;;31.75;;
47860;SDS011;33620;52.340;5.984;2022-12-11T03:51:02;75.35;;;27.48;;
47860;SDS011;33620;52.340;5.984;2022-12-11T03:53:31;85.63;;;29.70;;
47860;SDS011;33620;52.340;5.984;2022-12-11T03:55:58;99.20;;;32.53;;
47860;SDS011;33620;52.340;5.984;2022-12-11T03:58:25;68.75;;;27.52;;
47860;SDS011;33620;52.340;5.984;2022-12-11T04:00:50;90.38;;;29.95;;
47860;SDS011;33620;52.340;5.984;2022-12-11T04:03:16;82.80;;;29.70;;
47860;SDS011;33620;52.340;5.984;2022-12-11T04:05:46;84.20;;;29.92;;
47860;SDS011;33620;52.340;5.984;2022-12-11T04:08:13;82.07;;;29.33;;
47860;SDS011;33620;52.340;5.984;2022-12-11T04:10:40;102.32;;;30.85;;
47860;SDS011;33620;52.340;5.984;2022-12-11T04:13:06;94.63;;;30.02;;
47860;SDS011;33620;52.340;5.984;2022-12-11T04:15:32;75.13;;;26.70;;
47860;SDS011;33620;52.340;5.984;2022-12-11T04:17:58;89.28;;;28.33;;
47860;SDS011;33620;52.340;5.984;2022-12-11T04:20:42;79.20;;;26.65;;
47860;SDS011;33620;52.340;5.984;2022-12-11T04:23:26;97.88;;;31.05;;
47860;SDS011;33620;52.340;5.984;2022-12-11T04:26:11;81.35;;;27.88;;
47860;SDS011;33620;52.340;5.984;2022-12-11T04:28:39;76.40;;;26.65;;
47860;SDS011;33620;52.340;5.984;2022-12-11T04:31:05;68.50;;;24.40;;
47860;SDS011;33620;52.340;5.984;2022-12-11T04:33:30;73.82;;;27.17;;
47860;SDS011;33620;52.340;5.984;2022-12-11T04:35:57;79.50;;;28.10;;
47860;SDS011;33620;52.340;5.984;2022-12-11T04:38:23;81.70;;;27.40;;
47860;SDS011;33620;52.340;5.984;2022-12-11T04:40:49;79.10;;;27.42;;
47860;SDS011;33620;52.340;5.984;2022-12-11T04:43:20;80.22;;;27.67;;
47860;SDS011;33620;52.340;5.984;2022-12-11T04:45:46;76.20;;;28.58;;
47860;SDS011;33620;52.340;5.984;2022-12-11T04:48:11;89.47;;;28.02;;
47860;SDS011;33620;52.340;5.984;2022-12-11T04:50:37;83.20;;;28.55;;
47860;SDS011;33620;52.340;5.984;2022-12-11T04:53:02;75.57;;;27.33;;
47860;SDS011;33620;52.340;5.984;2022-12-11T04:55:28;85.00;;;27.55;;
47860;SDS011;33620;52.340;5.984;2022-12-11T04:57:53;88.75;;;28.80;;
47860;SDS011;33620;52.340;5.984;2022-12-11T05:00:19;85.07;;;28.83;;
47860;SDS011;33620;52.340;5.984;2022-12-11T05:02:45;93.97;;;28.88;;
47860;SDS011;33620;52.340;5.984;2022-12-11T05:05:10;83.03;;;28.38;;
47860;SDS011;33620;52.340;5.984;2022-12-11T05:07:36;73.35;;;25.75;;
47860;SDS011;33620;52.340;5.984;2022-12-11T05:10:03;91.85;;;29.73;;
47860;SDS011;33620;52.340;5.984;2022-12-11T05:12:30;72.05;;;27.45;;
47860;SDS011;33620;52.340;5.984;2022-12-11T05:14:56;76.65;;;26.20;;
47860;SDS011;33620;52.340;5.984;2022-12-11T05:17:21;70.03;;;24.05;;
47860;SDS011;33620;52.340;5.984;2022-12-11T05:19:47;88.50;;;28.50;;
47860;SDS011;33620;52.340;5.984;2022-12-11T05:22:14;81.00;;;27.40;;
47860;SDS011;33620;52.340;5.984;2022-12-11T05:24:40;81.47;;;28.80;;
47860;SDS011;33620;52.340;5.984;2022-12-11T05:27:05;78.38;;;27.88;;
47860;SDS011;33620;52.340;5.984;2022-12-11T05:29:31;74.88;;;27.50;;
47860;SDS011;33620;52.340;5.984;2022-12-11T05:31:56;73.15;;;26.80;;
47860;SDS011;33620;52.340;5.984;2022-12-11T05:34:22;73.05;;;27.23;;
47860;SDS011;33620;52.340;5.984;2022-12-11T05:36:47;78.43;;;27.08;;
47860;SDS011;33620;52.340;5.984;2022-12-11T05:39:13;92.97;;;29.63;;
47860;SDS011;33620;52.340;5.984;2022-12-11T05:41:38;69.22;;;26.80;;
47860;SDS011;33620;52.340;5.984;2022-12-11T05:44:04;80.25;;;28.75;;
47860;SDS011;33620;52.340;5.984;2022-12-11T05:46:29;84.65;;;28.35;;
47860;SDS011;33620;52.340;5.984;2022-12-11T05:48:56;91.82;;;30.10;;
47860;SDS011;33620;52.340;5.984;2022-12-11T05:51:23;85.80;;;29.40;;
47860;SDS011;33620;52.340;5.984;2022-12-11T05:53:49;79.22;;;29.13;;
47860;SDS011;33620;52.340;5.984;2022-12-11T05:56:17;88.43;;;30.13;;
47860;SDS011;33620;52.340;5.984;2022-12-11T05:58:45;89.97;;;31.67;;
47860;SDS011;33620;52.340;5.984;2022-12-11T06:01:13;84.82;;;30.33;;
47860;SDS011;33620;52.340;5.984;2022-12-11T06:03:46;77.43;;;29.33;;
47860;SDS011;33620;52.340;5.984;2022-12-11T06:06:12;79.90;;;27.02;;
47860;SDS011;33620;52.340;5.984;2022-12-11T06:08:37;84.20;;;30.30;;
47860;SDS011;33620;52.340;5.984;2022-12-11T06:11:03;69.45;;;27.27;;
47860;SDS011;33620;52.340;5.984;2022-12-11T06:13:29;72.82;;;27.77;;
47860;SDS011;33620;52.340;5.984;2022-12-11T06:15:55;81.88;;;29.02;;
47860;SDS011;33620;52.340;5.984;2022-12-11T06:18:24;77.65;;;28.50;;
47860;SDS011;33620;52.340;5.984;2022-12-11T06:20:49;70.95;;;26.45;;
47860;SDS011;33620;52.340;5.984;2022-12-11T06:23:15;79.05;;;28.90;;
47860;SDS011;33620;52.340;5.984;2022-12-11T06:25:40;81.57;;;27.02;;
47860;SDS011;33620;52.340;5.984;2022-12-11T06:28:05;72.65;;;25.98;;
47860;SDS011;33620;52.340;5.984;2022-12-11T06:30:31;92.78;;;30.80;;
47860;SDS011;33620;52.340;5.984;2022-12-11T06:32:57;84.55;;;28.45;;
47860;SDS011;33620;52.340;5.984;2022-12-11T06:35:23;75.78;;;27.50;;
47860;SDS011;33620;52.340;5.984;2022-12-11T06:37:48;82.32;;;30.15;;
47860;SDS011;33620;52.340;5.984;2022-12-11T06:40:13;91.00;;;30.85;;
47860;SDS011;33620;52.340;5.984;2022-12-11T06:42:39;82.15;;;29.00;;
47860;SDS011;33620;52.340;5.984;2022-12-11T06:45:05;96.05;;;30.23;;
47860;SDS011;33620;52.340;5.984;2022-12-11T06:47:31;91.28;;;30.58;;
47860;SDS011;33620;52.340;5.984;2022-12-11T06:49:57;93.18;;;30.70;;
47860;SDS011;33620;52.340;5.984;2022-12-11T06:52:23;85.45;;;29.75;;
47860;SDS011;33620;52.340;5.984;2022-12-11T06:54:51;89.93;;;28.15;;
47860;SDS011;33620;52.340;5.984;2022-12-11T06:57:17;83.05;;;27.88;;
47860;SDS011;33620;52.340;5.984;2022-12-11T06:59:43;87.70;;;29.23;;
47860;SDS011;33620;52.340;5.984;2022-12-11T07:02:11;86.70;;;29.10;;
47860;SDS011;33620;52.340;5.984;2022-12-11T07:04:38;75.88;;;26.70;;
47860;SDS011;33620;52.340;5.984;2022-12-11T07:07:03;84.63;;;28.95;;
47860;SDS011;33620;52.340;5.984;2022-12-11T07:09:28;90.88;;;30.25;;
47860;SDS011;33620;52.340;5.984;2022-12-11T07:11:54;72.30;;;27.52;;
47860;SDS011;33620;52.340;5.984;2022-12-11T07:14:19;84.95;;;29.90;;
47860;SDS011;33620;52.340;5.984;2022-12-11T07:16:45;85.50;;;28.63;;
47860;SDS011;33620;52.340;5.984;2022-12-11T07:19:10;89.53;;;32.45;;
47860;SDS011;33620;52.340;5.984;2022-12-11T07:21:35;86.97;;;28.40;;
47860;SDS011;33620;52.340;5.984;2022-12-11T07:24:01;95.50;;;29.58;;
47860;SDS011;33620;52.340;5.984;2022-12-11T07:26:27;77.13;;;26.95;;
47860;SDS011;33620;52.340;5.984;2022-12-11T07:28:55;91.75;;;29.42;;
47860;SDS011;33620;52.340;5.984;2022-12-11T07:31:21;96.78;;;30.08;;
47860;SDS011;33620;52.340;5.984;2022-12-11T07:34:06;82.07;;;29.85;;
47860;SDS011;33620;52.340;5.984;2022-12-11T07:36:32;95.13;;;30.42;;
47860;SDS011;33620;52.340;5.984;2022-12-11T07:38:58;86.75;;;29.77;;
47860;SDS011;33620;52.340;5.984;2022-12-11T07:41:24;98.00;;;30.85;;
47860;SDS011;33620;52.340;5.984;2022-12-11T07:43:52;75.57;;;28.98;;
47860;SDS011;33620;52.340;5.984;2022-12-11T07:46:19;93.25;;;32.70;;
47860;SDS011;33620;52.340;5.984;2022-12-11T07:48:47;87.63;;;32.38;;
47860;SDS011;33620;52.340;5.984;2022-12-11T07:51:23;88.55;;;31.65;;
47860;SDS011;33620;52.340;5.984;2022-12-11T07:53:57;86.30;;;32.13;;
47860;SDS011;33620;52.340;5.984;2022-12-11T07:56:25;95.95;;;33.38;;
47860;SDS011;33620;52.340;5.984;2022-12-11T07:58:51;88.28;;;32.50;;
47860;SDS011;33620;52.340;5.984;2022-12-11T08:01:18;85.18;;;32.35;;
47860;SDS011;33620;52.340;5.984;2022-12-11T08:03:45;79.40;;;31.45;;
47860;SDS011;33620;52.340;5.984;2022-12-11T08:06:11;91.00;;;32.42;;
47860;SDS011;33620;52.340;5.984;2022-12-11T08:08:37;75.53;;;30.58;;
47860;SDS011;33620;52.340;5.984;2022-12-11T08:11:05;73.78;;;30.25;;
47860;SDS011;33620;52.340;5.984;2022-12-11T08:13:32;80.97;;;31.27;;
47860;SDS011;33620;52.340;5.984;2022-12-11T08:15:58;81.70;;;32.00;;
47860;SDS011;33620;52.340;5.984;2022-12-11T08:18:26;68.80;;;30.02;;
47860;SDS011;33620;52.340;5.984;2022-12-11T08:20:52;81.32;;;31.38;;
47860;SDS011;33620;52.340;5.984;2022-12-11T08:23:17;74.47;;;30.08;;
47860;SDS011;33620;52.340;5.984;2022-12-11T08:25:42;78.40;;;31.75;;
47860;SDS011;33620;52.340;5.984;2022-12-11T08:28:08;77.80;;;30.38;;
47860;SDS011;33620;52.340;5.984;2022-12-11T08:30:33;84.88;;;33.15;;
47860;SDS011;33620;52.340;5.984;2022-12-11T08:32:59;83.30;;;33.47;;
47860;SDS011;33620;52.340;5.984;2022-12-11T08:35:24;78.53;;;33.75;;
47860;SDS011;33620;52.340;5.984;2022-12-11T08:37:50;83.53;;;33.72;;
47860;SDS011;33620;52.340;5.984;2022-12-11T08:40:16;79.18;;;32.40;;
47860;SDS011;33620;52.340;5.984;2022-12-11T08:42:41;88.25;;;34.53;;
47860;SDS011;33620;52.340;5.984;2022-12-11T08:45:09;86.22;;;33.15;;
47860;SDS011;33620;52.340;5.984;2022-12-11T08:47:35;84.20;;;33.53;;
47860;SDS011;33620;52.340;5.984;2022-12-11T08:50:00;83.38;;;32.05;;
47860;SDS011;33620;52.340;5.984;2022-12-11T08:52:26;79.32;;;32.17;;
47860;SDS011;33620;52.340;5.984;2022-12-11T08:54:51;82.88;;;33.33;;
47860;SDS011;33620;52.340;5.984;2022-12-11T08:57:17;76.60;;;31.15;;
47860;SDS011;33620;52.340;5.984;2022-12-11T08:59:42;80.88;;;32.75;;
47860;SDS011;33620;52.340;5.984;2022-12-11T09:02:09;78.85;;;32.25;;
47860;SDS011;33620;52.340;5.984;2022-12-11T09:04:36;75.78;;;30.45;;
47860;SDS011;33620;52.340;5.984;2022-12-11T09:07:01;73.15;;;30.25;;
47860;SDS011;33620;52.340;5.984;2022-12-11T09:09:27;75.90;;;29.48;;
47860;SDS011;33620;52.340;5.984;2022-12-11T09:11:52;75.72;;;30.73;;
47860;SDS011;33620;52.340;5.984;2022-12-11T09:14:18;75.47;;;33.20;;
47860;SDS011;33620;52.340;5.984;2022-12-11T09:16:43;71.00;;;31.42;;
47860;SDS011;33620;52.340;5.984;2022-12-11T09:19:10;78.05;;;33.75;;
47860;SDS011;33620;52.340;5.984;2022-12-11T09:21:38;67.88;;;30.10;;
47860;SDS011;33620;52.340;5.984;2022-12-11T09:24:03;67.93;;;30.45;;
47860;SDS011;33620;52.340;5.984;2022-12-11T09:26:29;68.13;;;30.17;;
47860;SDS011;33620;52.340;5.984;2022-12-11T09:28:55;66.13;;;29.27;;
47860;SDS011;33620;52.340;5.984;2022-12-11T09:33:57;66.40;;;30.85;;
47860;SDS011;33620;52.340;5.984;2022-12-11T09:36:24;65.65;;;31.75;;
47860;SDS011;33620;52.340;5.984;2022-12-11T09:38:50;67.53;;;32.05;;
47860;SDS011;33620;52.340;5.984;2022-12-11T09:46:52;67.53;;;30.73;;
47860;SDS011;33620;52.340;5.984;2022-12-11T09:49:22;71.05;;;30.85;;
47860;SDS011;33620;52.340;5.984;2022-12-11T09:52:03;70.20;;;33.67;;
47860;SDS011;33620;52.340;5.984;2022-12-11T09:54:47;64.53;;;31.05;;
47860;SDS011;33620;52.340;5.984;2022-12-11T10:00:03;68.53;;;31.00;;
47860;SDS011;33620;52.340;5.984;2022-12-11T10:17:18;51.22;;;22.73;;
47860;SDS011;33620;52.340;5.984;2022-12-11T10:19:51;46.65;;;20.88;;
47860;SDS011;33620;52.340;5.984;2022-12-11T10:22:18;45.53;;;19.55;;
47860;SDS011;33620;52.340;5.984;2022-12-11T10:24:58;51.03;;;21.25;;
47860;SDS011;33620;52.340;5.984;2022-12-11T10:27:30;48.03;;;20.95;;
47860;SDS011;33620;52.340;5.984;2022-12-11T10:30:13;52.05;;;22.98;;
47860;SDS011;33620;52.340;5.984;2022-12-11T10:35:42;47.40;;;22.05;;
47860;SDS011;33620;52.340;5.984;2022-12-11T10:40:53;48.67;;;22.10;;
47860;SDS011;33620;52.340;5.984;2022-12-11T10:43:37;45.22;;;20.38;;
47860;SDS011;33620;52.340;5.984;2022-12-11T10:46:17;45.78;;;19.75;;
47860;SDS011;33620;52.340;5.984;2022-12-11T10:51:18;41.90;;;18.38;;
47860;SDS011;33620;52.340;5.984;2022-12-11T10:53:49;40.42;;;18.35;;
47860;SDS011;33620;52.340;5.984;2022-12-11T10:56:26;41.07;;;19.60;;
47860;SDS011;33620;52.340;5.984;2022-12-11T10:58:52;44.00;;;19.85;;
47860;SDS011;33620;52.340;5.984;2022-12-11T11:01:20;47.15;;;21.85;;
47860;SDS011;33620;52.340;5.984;2022-12-11T11:04:22;44.78;;;18.67;;
47860;SDS011;33620;52.340;5.984;2022-12-11T11:06:44;42.58;;;18.83;;
47860;SDS011;33620;52.340;5.984;2022-12-11T11:09:29;44.28;;;19.63;;
47860;SDS011;33620;52.340;5.984;2022-12-11T11:11:59;39.35;;;18.08;;
47860;SDS011;33620;52.340;5.984;2022-12-11T11:14:25;45.90;;;19.88;;
47860;SDS011;33620;52.340;5.984;2022-12-11T11:16:51;44.00;;;20.08;;
47860;SDS011;33620;52.340;5.984;2022-12-11T11:22:15;40.47;;;18.15;;
47860;SDS011;33620;52.340;5.984;2022-12-11T11:24:45;46.63;;;19.98;;
47860;SDS011;33620;52.340;5.984;2022-12-11T11:30:01;36.75;;;17.52;;
47860;SDS011;33620;52.340;5.984;2022-12-11T11:32:36;34.40;;;17.05;;
47860;SDS011;33620;52.340;5.984;2022-12-11T11:35:13;43.08;;;19.33;;
47860;SDS011;33620;52.340;5.984;2022-12-11T11:37:46;38.40;;;16.73;;
47860;SDS011;33620;52.340;5.984;2022-12-11T11:40:27;37.72;;;18.27;;
47860;SDS011;33620;52.340;5.984;2022-12-11T11:42:56;43.63;;;19.73;;
47860;SDS011;33620;52.340;5.984;2022-12-11T11:45:55;42.70;;;18.75;;
47860;SDS011;33620;52.340;5.984;2022-12-11T11:48:34;40.92;;;18.70;;
47860;SDS011;33620;52.340;5.984;2022-12-11T11:51:07;40.10;;;17.80;;
47860;SDS011;33620;52.340;5.984;2022-12-11T11:53:39;40.60;;;17.25;;
47860;SDS011;33620;52.340;5.984;2022-12-11T11:56:21;39.20;;;17.75;;
47860;SDS011;33620;52.340;5.984;2022-12-11T12:01:20;40.17;;;17.13;;
47860;SDS011;33620;52.340;5.984;2022-12-11T12:03:46;39.25;;;17.85;;
47860;SDS011;33620;52.340;5.984;2022-12-11T12:06:17;44.15;;;19.60;;
47860;SDS011;33620;52.340;5.984;2022-12-11T12:11:44;41.42;;;19.95;;
47860;SDS011;33620;52.340;5.984;2022-12-11T12:14:28;45.45;;;21.05;;
47860;SDS011;33620;52.340;5.984;2022-12-11T12:36:10;37.67;;;16.10;;
47860;SDS011;33620;52.340;5.984;2022-12-11T12:38:53;37.35;;;17.38;;
47860;SDS011;33620;52.340;5.984;2022-12-11T12:41:35;38.03;;;17.05;;
47860;SDS011;33620;52.340;5.984;2022-12-11T12:44:10;33.10;;;15.32;;
47860;SDS011;33620;52.340;5.984;2022-12-11T12:49:49;38.97;;;18.42;;
47860;SDS011;33620;52.340;5.984;2022-12-11T12:54:50;40.92;;;18.70;;
47860;SDS011;33620;52.340;5.984;2022-12-11T12:57:41;41.95;;;18.90;;
47860;SDS011;33620;52.340;5.984;2022-12-11T13:00:11;36.22;;;16.90;;
47860;SDS011;33620;52.340;5.984;2022-12-11T13:02:46;39.25;;;17.55;;
47860;SDS011;33620;52.340;5.984;2022-12-11T13:05:18;37.33;;;17.25;;
47860;SDS011;33620;52.340;5.984;2022-12-11T13:07:47;39.38;;;17.58;;
47860;SDS011;33620;52.340;5.984;2022-12-11T13:12:47;38.85;;;17.17;;
47860;SDS011;33620;52.340;5.984;2022-12-11T13:17:56;33.88;;;15.65;;
47860;SDS011;33620;52.340;5.984;2022-12-11T13:20:24;38.03;;;18.10;;
47860;SDS011;33620;52.340;5.984;2022-12-11T13:25:31;39.72;;;17.55;;
47860;SDS011;33620;52.340;5.984;2022-12-11T13:28:30;38.72;;;18.73;;
47860;SDS011;33620;52.340;5.984;2022-12-11T13:33:40;36.90;;;18.00;;
47860;SDS011;33620;52.340;5.984;2022-12-11T13:38:33;37.88;;;17.80;;
47860;SDS011;33620;52.340;5.984;2022-12-11T13:40:59;42.33;;;19.55;;
47860;SDS011;33620;52.340;5.984;2022-12-11T13:43:26;42.50;;;19.50;;
47860;SDS011;33620;52.340;5.984;2022-12-11T13:45:57;43.05;;;20.08;;
47860;SDS011;33620;52.340;5.984;2022-12-11T13:50:59;42.10;;;19.50;;
47860;SDS011;33620;52.340;5.984;2022-12-11T13:53:26;35.30;;;18.77;;
47860;SDS011;33620;52.340;5.984;2022-12-11T13:55:58;42.05;;;19.13;;
47860;SDS011;33620;52.340;5.984;2022-12-11T13:58:27;40.63;;;18.98;;
47860;SDS011;33620;52.340;5.984;2022-12-11T14:01:11;44.03;;;19.30;;
47860;SDS011;33620;52.340;5.984;2022-12-11T14:03:51;43.45;;;19.38;;
47860;SDS011;33620;52.340;5.984;2022-12-11T14:06:19;42.08;;;21.10;;
47860;SDS011;33620;52.340;5.984;2022-12-11T14:08:47;42.58;;;20.95;;
47860;SDS011;33620;52.340;5.984;2022-12-11T14:11:22;44.53;;;21.40;;
47860;SDS011;33620;52.340;5.984;2022-12-11T14:13:54;41.55;;;20.27;;
47860;SDS011;33620;52.340;5.984;2022-12-11T14:16:25;43.97;;;21.25;;
47860;SDS011;33620;52.340;5.984;2022-12-11T14:18:52;45.08;;;21.60;;
47860;SDS011;33620;52.340;5.984;2022-12-11T14:21:22;42.50;;;20.77;;
47860;SDS011;33620;52.340;5.984;2022-12-11T14:23:53;45.20;;;21.85;;
47860;SDS011;33620;52.340;5.984;2022-12-11T14:26:21;45.75;;;21.63;;
47860;SDS011;33620;52.340;5.984;2022-12-11T14:28:51;47.72;;;22.48;;
47860;SDS011;33620;52.340;5.984;2022-12-11T14:36:38;44.47;;;22.48;;
47860;SDS011;33620;52.340;5.984;2022-12-11T14:39:10;47.67;;;23.42;;
47860;SDS011;33620;52.340;5.984;2022-12-11T14:44:54;48.55;;;22.88;;
47860;SDS011;33620;52.340;5.984;2022-12-11T14:47:25;44.97;;;22.70;;
47860;SDS011;33620;52.340;5.984;2022-12-11T14:49:57;49.03;;;24.08;;
47860;SDS011;33620;52.340;5.984;2022-12-11T14:52:31;45.47;;;23.10;;
47860;SDS011;33620;52.340;5.984;2022-12-11T14:57:34;50.65;;;24.13;;
47860;SDS011;33620;52.340;5.984;2022-12-11T15:00:01;50.65;;;23.95;;
47860;SDS011;33620;52.340;5.984;2022-12-11T15:02:29;46.17;;;23.67;;
47860;SDS011;33620;52.340;5.984;2022-12-11T15:04:58;47.22;;;24.13;;
47860;SDS011;33620;52.340;5.984;2022-12-11T15:07:25;50.08;;;23.48;;
47860;SDS011;33620;52.340;5.984;2022-12-11T15:09:51;49.80;;;22.30;;
47860;SDS011;33620;52.340;5.984;2022-12-11T15:12:17;53.60;;;25.30;;
47860;SDS011;33620;52.340;5.984;2022-12-11T15:17:18;43.00;;;21.17;;
47860;SDS011;33620;52.340;5.984;2022-12-11T15:19:55;45.75;;;23.42;;
47860;SDS011;33620;52.340;5.984;2022-12-11T15:22:26;48.22;;;24.63;;
47860;SDS011;33620;52.340;5.984;2022-12-11T15:24:55;47.65;;;24.58;;
47860;SDS011;33620;52.340;5.984;2022-12-11T15:27:24;51.35;;;23.88;;
47860;SDS011;33620;52.340;5.984;2022-12-11T15:30:13;48.05;;;22.25;;
47860;SDS011;33620;52.340;5.984;2022-12-11T15:32:38;42.10;;;20.63;;
47860;SDS011;33620;52.340;5.984;2022-12-11T15:35:21;49.70;;;24.10;;
47860;SDS011;33620;52.340;5.984;2022-12-11T15:37:51;47.55;;;24.48;;
47860;SDS011;33620;52.340;5.984;2022-12-11T15:40:18;48.97;;;23.73;;
47860;SDS011;33620;52.340;5.984;2022-12-11T15:42:43;49.03;;;24.33;;
47860;SDS011;33620;52.340;5.984;2022-12-11T15:45:16;48.70;;;24.70;;
47860;SDS011;33620;52.340;5.984;2022-12-11T15:47:44;46.63;;;22.33;;
47860;SDS011;33620;52.340;5.984;2022-12-11T15:50:17;50.50;;;23.30;;
47860;SDS011;33620;52.340;5.984;2022-12-11T15:52:43;47.80;;;24.25;;
47860;SDS011;33620;52.340;5.984;2022-12-11T15:55:09;47.53;;;23.27;;
47860;SDS011;33620;52.340;5.984;2022-12-11T15:57:35;47.65;;;23.20;;
47860;SDS011;33620;52.340;5.984;2022-12-11T16:00:02;47.55;;;23.92;;
47860;SDS011;33620;52.340;5.984;2022-12-11T16:02:30;47.45;;;22.10;;
47860;SDS011;33620;52.340;5.984;2022-12-11T16:04:56;49.17;;;23.73;;
47860;SDS011;33620;52.340;5.984;2022-12-11T16:07:22;40.17;;;20.80;;
47860;SDS011;33620;52.340;5.984;2022-12-11T16:09:49;44.85;;;22.85;;
47860;SDS011;33620;52.340;5.984;2022-12-11T16:12:15;47.13;;;22.67;;
47860;SDS011;33620;52.340;5.984;2022-12-11T16:14:42;47.13;;;23.42;;
47860;SDS011;33620;52.340;5.984;2022-12-11T16:17:09;44.70;;;22.23;;
47860;SDS011;33620;52.340;5.984;2022-12-11T16:19:37;49.08;;;24.42;;
47860;SDS011;33620;52.340;5.984;2022-12-11T16:22:02;45.00;;;22.27;;
47860;SDS011;33620;52.340;5.984;2022-12-11T16:24:28;46.35;;;23.23;;
47860;SDS011;33620;52.340;5.984;2022-12-11T16:26:54;48.85;;;23.65;;
47860;SDS011;33620;52.340;5.984;2022-12-11T16:29:19;48.58;;;23.05;;
47860;SDS011;33620;52.340;5.984;2022-12-11T16:31:45;44.92;;;21.45;;
47860;SDS011;33620;52.340;5.984;2022-12-11T16:34:10;45.47;;;22.40;;